createdAt,value
2019-03-08T00:00:24.261Z,98839
2019-03-08T00:05:24.210Z,98837
2019-03-08T00:10:24.254Z,98830
2019-03-08T00:15:24.214Z,98840
2019-03-08T00:20:24.249Z,98819
2019-03-08T00:25:24.250Z,98820
2019-03-08T00:30:24.215Z,98824
2019-03-08T00:35:24.244Z,98820
2019-03-08T00:40:24.262Z,98822
2019-03-08T00:45:24.264Z,98822
2019-03-08T00:50:24.261Z,98809
2019-03-08T00:55:24.258Z,98804
2019-03-08T01:00:24.244Z,98814
2019-03-08T01:05:24.263Z,98820
2019-03-08T01:10:24.256Z,98828
2019-03-08T01:15:24.242Z,98823
2019-03-08T01:20:24.257Z,98815
2019-03-08T01:25:24.227Z,98800
2019-03-08T01:30:24.266Z,98812
2019-03-08T01:35:24.249Z,98809
2019-03-08T01:40:24.305Z,98800
2019-03-08T01:45:24.276Z,98797
2019-03-08T01:50:24.244Z,98805
2019-03-08T01:55:24.272Z,98793
2019-03-08T02:00:24.251Z,98801
2019-03-08T02:05:24.254Z,98767
2019-03-08T02:10:24.265Z,98779
2019-03-08T02:15:24.250Z,98776
2019-03-08T02:20:24.258Z,98788
2019-03-08T02:25:24.278Z,98763
2019-03-08T02:30:24.264Z,98763
2019-03-08T02:35:24.233Z,98776
2019-03-08T02:40:24.279Z,98776
2019-03-08T02:45:24.257Z,98774
2019-03-08T02:50:24.315Z,98774
2019-03-08T02:55:24.256Z,98775
2019-03-08T03:00:24.261Z,98771
2019-03-08T03:05:24.279Z,98772
2019-03-08T03:10:24.273Z,98777
2019-03-08T03:15:24.276Z,98777
2019-03-08T03:20:24.264Z,98771
2019-03-08T03:25:24.259Z,98776
2019-03-08T03:30:24.270Z,98781
2019-03-08T03:35:24.275Z,98779
2019-03-08T03:40:24.326Z,98777
2019-03-08T03:45:24.259Z,98769
2019-03-08T03:50:24.258Z,98776
2019-03-08T03:55:24.279Z,98768
2019-03-08T04:00:24.298Z,98782
2019-03-08T04:05:24.278Z,98787
2019-03-08T04:10:24.261Z,98798
2019-03-08T04:15:24.263Z,98792
2019-03-08T04:20:24.282Z,98800
2019-03-08T04:25:24.280Z,98806
2019-03-08T04:30:24.276Z,98814
2019-03-08T04:35:24.269Z,98801
2019-03-08T04:40:24.283Z,98806
2019-03-08T04:45:24.276Z,98814
2019-03-08T04:50:24.275Z,98814
2019-03-08T04:55:24.279Z,98810
2019-03-08T05:00:24.266Z,98812
2019-03-08T05:05:24.272Z,98824
2019-03-08T05:10:24.263Z,98834
2019-03-08T05:15:24.278Z,98824
2019-03-08T05:20:24.278Z,98824
2019-03-08T05:25:24.235Z,98832
2019-03-08T05:30:24.285Z,98834
2019-03-08T05:35:24.274Z,98844
2019-03-08T05:40:24.277Z,98851
2019-03-08T05:45:24.235Z,98865
2019-03-08T05:50:24.270Z,98862
2019-03-08T05:55:24.285Z,98864
2019-03-08T06:00:31.471Z,98873
2019-03-08T06:05:24.277Z,98850
2019-03-08T06:10:24.324Z,98854
2019-03-08T06:15:24.237Z,98861
2019-03-08T06:20:24.271Z,98871
2019-03-08T06:25:24.298Z,98869
2019-03-08T06:30:24.280Z,98877
2019-03-08T06:35:24.321Z,98894
2019-03-08T06:40:24.290Z,98912
2019-03-08T06:45:24.296Z,98904
2019-03-08T06:50:24.277Z,98922
2019-03-08T06:55:24.282Z,98920
2019-03-08T07:00:24.281Z,98916
2019-03-08T07:05:24.258Z,98929
2019-03-08T07:10:24.302Z,98940
2019-03-08T07:15:24.281Z,98950
2019-03-08T07:20:24.276Z,98969
2019-03-08T07:25:24.290Z,98980
2019-03-08T07:30:24.252Z,98987
2019-03-08T07:35:24.291Z,99006
2019-03-08T07:40:24.282Z,99012
2019-03-08T07:45:24.301Z,99043
2019-03-08T07:50:24.284Z,99050
2019-03-08T07:55:24.292Z,99070
2019-03-08T08:00:24.275Z,99086
2019-03-08T08:05:24.248Z,99106
2019-03-08T08:10:24.296Z,99125
2019-03-08T08:15:24.257Z,99137
2019-03-08T08:20:24.303Z,99139
2019-03-08T08:25:24.279Z,99154
2019-03-08T08:30:24.296Z,99169
2019-03-08T08:35:24.290Z,99186
2019-03-08T08:40:24.248Z,99195
2019-03-08T08:45:24.346Z,99203
2019-03-08T08:50:24.286Z,99219
2019-03-08T08:55:24.251Z,99227
2019-03-08T09:00:24.301Z,99224
2019-03-08T09:05:24.304Z,99251
2019-03-08T09:10:24.285Z,99268
2019-03-08T09:15:24.308Z,99258
2019-03-08T09:20:24.296Z,99276
2019-03-08T09:25:24.256Z,99294
2019-03-08T09:30:24.306Z,99318
2019-03-08T09:35:24.306Z,99317
2019-03-08T09:40:24.306Z,99330
2019-03-08T09:45:24.253Z,99350
2019-03-08T09:50:24.305Z,99360
2019-03-08T09:55:24.302Z,99365
2019-03-08T10:00:24.333Z,99369
2019-03-08T10:05:24.309Z,99346
2019-03-08T10:10:24.303Z,99371
2019-03-08T10:15:24.328Z,99382
2019-03-08T10:20:24.260Z,99386
2019-03-08T10:25:24.313Z,99399
2019-03-08T10:30:24.307Z,99350
2019-03-08T10:35:24.336Z,99393
2019-03-08T10:40:24.307Z,99393
2019-03-08T10:45:24.347Z,99409
2019-03-08T10:50:24.347Z,99417
2019-03-08T10:55:24.310Z,99427
2019-03-08T11:00:24.308Z,99416
2019-03-08T11:05:24.314Z,99433
2019-03-08T11:10:24.299Z,99444
2019-03-08T11:15:24.873Z,99460
2019-03-08T11:20:24.300Z,99450
2019-03-08T11:25:24.323Z,99466
2019-03-08T11:30:24.301Z,99462
2019-03-08T11:35:24.306Z,99468
2019-03-08T11:40:24.301Z,99467
2019-03-08T11:45:26.219Z,99478
2019-03-08T11:50:24.311Z,99468
2019-03-08T11:55:24.280Z,99497
2019-03-08T12:00:24.315Z,99497
2019-03-08T12:05:24.312Z,99504
2019-03-08T12:10:24.307Z,99502
2019-03-08T12:15:24.320Z,99522
2019-03-08T12:20:24.310Z,99531
2019-03-08T12:25:24.314Z,99546
2019-03-08T12:30:24.328Z,99567
2019-03-08T12:35:24.325Z,99584
2019-03-08T12:40:24.312Z,99571
2019-03-08T12:45:24.306Z,99574
2019-03-08T12:50:24.332Z,99577
2019-03-08T12:55:24.312Z,99578
2019-03-08T13:00:24.349Z,99588
2019-03-08T13:05:24.322Z,99587
2019-03-08T13:10:24.305Z,99595
2019-03-08T13:15:24.329Z,99597
2019-03-08T13:20:24.356Z,99597
2019-03-08T13:25:24.314Z,99614
2019-03-08T13:30:24.324Z,99630
2019-03-08T13:35:24.282Z,99645
2019-03-08T13:40:24.329Z,99647
2019-03-08T13:45:24.319Z,99634
2019-03-08T13:50:24.351Z,99656
2019-03-08T13:55:24.369Z,99659
2019-03-08T14:00:24.290Z,99654
2019-03-08T14:05:24.287Z,99685
2019-03-08T14:10:24.338Z,99679
2019-03-08T14:15:24.363Z,99689
2019-03-08T14:20:24.330Z,99698
2019-03-08T14:25:24.326Z,99722
2019-03-08T14:30:24.283Z,99717
2019-03-08T14:35:25.991Z,99738
2019-03-08T14:40:24.338Z,99745
2019-03-08T14:45:24.377Z,99745
2019-03-08T14:50:24.287Z,99754
2019-03-08T14:55:24.330Z,99754
2019-03-08T15:00:25.144Z,99754
2019-03-08T15:05:24.285Z,99747
2019-03-08T15:10:24.362Z,99756
2019-03-08T15:15:24.319Z,99766
2019-03-08T15:20:24.328Z,99760
2019-03-08T15:25:24.345Z,99778
2019-03-08T15:30:24.320Z,99772
2019-03-08T15:35:24.347Z,99783
2019-03-08T15:40:24.327Z,99788
2019-03-08T15:45:24.329Z,99806
2019-03-08T15:50:24.298Z,99789
2019-03-08T15:55:24.298Z,99798
2019-03-08T16:00:24.335Z,99810
2019-03-08T16:05:28.049Z,99811
2019-03-08T16:10:24.300Z,99813
2019-03-08T16:15:24.341Z,99823
2019-03-08T16:20:24.342Z,99820
2019-03-08T16:25:24.331Z,99828
2019-03-08T16:30:24.337Z,99838
2019-03-08T16:35:24.351Z,99839
2019-03-08T16:40:24.325Z,99853
2019-03-08T16:45:24.354Z,99857
2019-03-08T16:50:25.886Z,99867
2019-03-08T16:55:24.333Z,99883
2019-03-08T17:00:24.330Z,99891
2019-03-08T17:05:24.367Z,99892
2019-03-08T17:10:24.342Z,99911
2019-03-08T17:15:24.326Z,99914
2019-03-08T17:20:24.344Z,99921
2019-03-08T17:25:24.303Z,99940
2019-03-08T17:30:24.343Z,99944
2019-03-08T17:35:24.347Z,99949
2019-03-08T17:40:24.309Z,99946
2019-03-08T17:45:24.334Z,99974
2019-03-08T17:50:24.343Z,99968
2019-03-08T17:55:24.336Z,99971
2019-03-08T18:00:24.356Z,99973
2019-03-08T18:05:24.327Z,99982
2019-03-08T18:10:24.345Z,99975
2019-03-08T18:15:24.354Z,99968
2019-03-08T18:20:24.338Z,99979
2019-03-08T18:25:24.390Z,99984
2019-03-08T18:30:24.352Z,99984
2019-03-08T18:35:24.369Z,99992
2019-03-08T18:40:24.347Z,99987
2019-03-08T18:45:24.318Z,99997
2019-03-08T18:50:24.348Z,100003
2019-03-08T18:55:24.346Z,100004
2019-03-08T19:00:24.344Z,100014
2019-03-08T19:05:24.338Z,100022
2019-03-08T19:10:24.353Z,100021
2019-03-08T19:15:24.342Z,100029
2019-03-08T19:20:24.314Z,100019
2019-03-08T19:25:24.390Z,100022
2019-03-08T19:30:24.359Z,100023
2019-03-08T19:35:24.353Z,100029
2019-03-08T19:40:24.345Z,100027
2019-03-08T19:45:24.347Z,100027
2019-03-08T19:50:24.366Z,100021
2019-03-08T19:55:24.365Z,100028
2019-03-08T20:00:24.366Z,100022
2019-03-08T20:05:24.363Z,100036
2019-03-08T20:10:24.350Z,100045
2019-03-08T20:15:24.387Z,100044
2019-03-08T20:20:24.360Z,100044
2019-03-08T20:25:24.361Z,100048
2019-03-08T20:30:24.352Z,100049
2019-03-08T20:35:24.350Z,100045
2019-03-08T20:40:24.370Z,100042
2019-03-08T20:45:24.371Z,100055
2019-03-08T20:50:24.343Z,100068
2019-03-08T20:55:24.361Z,100051
2019-03-08T21:00:24.353Z,100051
2019-03-08T21:05:24.320Z,100055
2019-03-08T21:10:24.359Z,100064
2019-03-08T21:15:25.547Z,100063
2019-03-08T21:20:24.351Z,100063
2019-03-08T21:25:24.387Z,100055
2019-03-08T21:30:24.313Z,100064
2019-03-08T21:35:24.410Z,100047
2019-03-08T21:40:24.356Z,100018
2019-03-08T21:45:24.360Z,100023
2019-03-08T21:50:24.330Z,100013
2019-03-08T21:55:24.354Z,100004
2019-03-08T22:00:24.331Z,100001
2019-03-08T22:05:24.409Z,99999
2019-03-08T22:10:24.360Z,99997
2019-03-08T22:15:24.375Z,99995
2019-03-08T22:20:24.360Z,99978
2019-03-08T22:25:24.360Z,99967
2019-03-08T22:30:24.356Z,99973
2019-03-08T22:35:24.366Z,99968
2019-03-08T22:40:24.362Z,99968
2019-03-08T22:45:24.375Z,99953
2019-03-08T22:50:24.373Z,99954
2019-03-08T22:55:24.399Z,99946
2019-03-08T23:00:24.366Z,99939
2019-03-08T23:05:24.368Z,99926
2019-03-08T23:10:24.373Z,99927
2019-03-08T23:15:24.371Z,99919
2019-03-08T23:20:24.371Z,99923
2019-03-08T23:25:24.366Z,99917
2019-03-08T23:30:24.362Z,99921
2019-03-08T23:35:24.380Z,99907
2019-03-08T23:40:24.325Z,99911
2019-03-08T23:45:24.378Z,99888
2019-03-08T23:50:24.368Z,99884
2019-03-08T23:55:24.418Z,99875
